Terminal Aerodrome Forecast
Issued by NWS Upton, NY

Current Version | Previous Version | Text Only | Print | Product List | Glossary On
Versions: 1 2 3 4 5 6 7 8 9 10 11 12 13 14 15 16 17 18 19 20 21 22 23 24 25 26 27 28 29
000
FTUS41 KOKX 220833 AAA
TAFLGA
TAF AMD
KLGA 220833Z 2209/2306 31008KT P6SM BKN080
     FM221200 31012KT P6SM FEW060
     FM221400 30014G23KT P6SM SCT060
     FM221800 28017G25KT P6SM BKN060
     FM222200 32018G29KT P6SM BKN060
     FM230300 32016G25KT P6SM SCT060=

USA.gov is the U.S. government's official web portal to all federal, state and local government web resources and services.